sensor_id;sensor_type;location;lat;lon;timestamp;pressure;altitude;pressure_sealevel;temperature;humidity
64243;BME280;50573;51.512;5.386;2023-03-01T00:08:46;102831.69;;;-0.27;75.22
64243;BME280;50573;51.512;5.386;2023-03-01T00:18:51;102823.66;;;-0.27;75.57
64243;BME280;50573;51.512;5.386;2023-03-01T00:28:54;102828.34;;;-0.32;76.31
64243;BME280;50573;51.512;5.386;2023-03-01T00:39:00;102833.50;;;-0.44;76.79
64243;BME280;50573;51.512;5.386;2023-03-01T00:49:04;102827.16;;;-0.48;77.69
64243;BME280;50573;51.512;5.386;2023-03-01T00:59:09;102818.13;;;-0.61;77.65
64243;BME280;50573;51.512;5.386;2023-03-01T01:09:15;102798.72;;;-0.75;77.81
64243;BME280;50573;51.512;5.386;2023-03-01T01:19:21;102791.38;;;-0.91;79.18
64243;BME280;50573;51.512;5.386;2023-03-01T01:29:24;102777.81;;;-0.95;79.94
64243;BME280;50573;51.512;5.386;2023-03-01T01:39:29;102765.69;;;-0.92;79.25
64243;BME280;50573;51.512;5.386;2023-03-01T01:49:36;102746.53;;;-0.94;80.18
64243;BME280;50573;51.512;5.386;2023-03-01T01:59:44;102747.72;;;-1.00;80.00
64243;BME280;50573;51.512;5.386;2023-03-01T02:09:50;102734.25;;;-1.17;80.98
64243;BME280;50573;51.512;5.386;2023-03-01T02:20:04;102731.47;;;-1.12;81.16
64243;BME280;50573;51.512;5.386;2023-03-01T02:30:12;102713.38;;;-1.15;81.35
64243;BME280;50573;51.512;5.386;2023-03-01T02:40:16;102725.53;;;-1.31;82.20
64243;BME280;50573;51.512;5.386;2023-03-01T02:50:47;102729.38;;;-1.46;82.72
64243;BME280;50573;51.512;5.386;2023-03-01T03:00:56;102729.91;;;-1.58;83.41
64243;BME280;50573;51.512;5.386;2023-03-01T03:11:04;102722.84;;;-1.54;83.65
64243;BME280;50573;51.512;5.386;2023-03-01T03:21:09;102720.84;;;-1.48;83.82
64243;BME280;50573;51.512;5.386;2023-03-01T03:31:14;102714.41;;;-1.47;84.30
64243;BME280;50573;51.512;5.386;2023-03-01T03:41:17;102710.28;;;-1.53;84.11
64243;BME280;50573;51.512;5.386;2023-03-01T03:51:22;102711.97;;;-1.57;84.10
64243;BME280;50573;51.512;5.386;2023-03-01T04:01:25;102702.81;;;-1.65;84.90
64243;BME280;50573;51.512;5.386;2023-03-01T04:11:29;102698.13;;;-1.81;84.34
64243;BME280;50573;51.512;5.386;2023-03-01T04:21:32;102687.78;;;-1.96;85.64
64243;BME280;50573;51.512;5.386;2023-03-01T04:31:37;102681.69;;;-2.10;86.23
64243;BME280;50573;51.512;5.386;2023-03-01T04:41:40;102679.00;;;-2.10;86.68
64243;BME280;50573;51.512;5.386;2023-03-01T04:51:46;102661.78;;;-2.04;87.01
64243;BME280;50573;51.512;5.386;2023-03-01T05:01:49;102653.56;;;-1.94;86.98
64243;BME280;50573;51.512;5.386;2023-03-01T05:11:53;102657.31;;;-1.95;86.85
64243;BME280;50573;51.512;5.386;2023-03-01T05:21:56;102656.03;;;-1.98;87.21
64243;BME280;50573;51.512;5.386;2023-03-01T05:32:07;102626.31;;;-2.05;87.82
64243;BME280;50573;51.512;5.386;2023-03-01T05:42:16;102621.00;;;-2.18;87.72
64243;BME280;50573;51.512;5.386;2023-03-01T05:52:21;102610.09;;;-2.30;88.30
64243;BME280;50573;51.512;5.386;2023-03-01T06:02:24;102604.28;;;-2.46;88.95
64243;BME280;50573;51.512;5.386;2023-03-01T06:12:31;102603.72;;;-2.56;90.57
64243;BME280;50573;51.512;5.386;2023-03-01T06:22:34;102610.13;;;-2.57;90.79
64243;BME280;50573;51.512;5.386;2023-03-01T06:32:39;102615.56;;;-2.62;90.43
64243;BME280;50573;51.512;5.386;2023-03-01T06:42:47;102619.72;;;-2.56;91.44
64243;BME280;50573;51.512;5.386;2023-03-01T06:52:56;102620.69;;;-2.52;90.90
64243;BME280;50573;51.512;5.386;2023-03-01T07:03:00;102617.00;;;-2.29;90.87
64243;BME280;50573;51.512;5.386;2023-03-01T07:13:05;102611.13;;;-1.96;89.53
64243;BME280;50573;51.512;5.386;2023-03-01T07:23:09;102623.47;;;-1.64;87.93
64243;BME280;50573;51.512;5.386;2023-03-01T07:33:14;102634.47;;;-1.35;87.16
64243;BME280;50573;51.512;5.386;2023-03-01T07:43:17;102631.75;;;-1.13;85.99
64243;BME280;50573;51.512;5.386;2023-03-01T07:53:21;102625.72;;;-0.79;84.63
64243;BME280;50573;51.512;5.386;2023-03-01T08:03:24;102625.47;;;-0.44;83.42
64243;BME280;50573;51.512;5.386;2023-03-01T08:13:29;102635.78;;;-0.12;81.99
64243;BME280;50573;51.512;5.386;2023-03-01T08:23:33;102637.97;;;0.12;81.88
64243;BME280;50573;51.512;5.386;2023-03-01T08:33:37;102634.94;;;0.39;80.60
64243;BME280;50573;51.512;5.386;2023-03-01T08:43:40;102621.91;;;0.75;79.13
64243;BME280;50573;51.512;5.386;2023-03-01T08:53:45;102606.47;;;1.10;77.19
64243;BME280;50573;51.512;5.386;2023-03-01T09:03:49;102617.78;;;1.44;76.29
64243;BME280;50573;51.512;5.386;2023-03-01T09:13:53;102598.06;;;1.82;75.38
64243;BME280;50573;51.512;5.386;2023-03-01T09:23:57;102588.53;;;2.25;71.53
64243;BME280;50573;51.512;5.386;2023-03-01T09:34:02;102591.06;;;2.54;69.57
64243;BME280;50573;51.512;5.386;2023-03-01T09:44:11;102585.16;;;2.85;67.61
64243;BME280;50573;51.512;5.386;2023-03-01T09:54:19;102565.84;;;2.95;67.57
64243;BME280;50573;51.512;5.386;2023-03-01T10:04:41;102549.53;;;3.28;63.87
64243;BME280;50573;51.512;5.386;2023-03-01T10:14:50;102538.03;;;3.55;63.18
64243;BME280;50573;51.512;5.386;2023-03-01T10:24:59;102530.47;;;3.60;61.90
64243;BME280;50573;51.512;5.386;2023-03-01T10:35:18;102516.06;;;3.68;61.73
64243;BME280;50573;51.512;5.386;2023-03-01T10:45:31;102519.00;;;3.91;62.24
64243;BME280;50573;51.512;5.386;2023-03-01T10:55:38;102512.53;;;4.07;60.24
64243;BME280;50573;51.512;5.386;2023-03-01T11:05:54;102504.09;;;4.40;57.60
64243;BME280;50573;51.512;5.386;2023-03-01T11:16:05;102511.16;;;4.60;56.51
64243;BME280;50573;51.512;5.386;2023-03-01T11:26:09;102508.78;;;4.74;57.07
64243;BME280;50573;51.512;5.386;2023-03-01T11:36:22;102512.06;;;4.83;55.20
64243;BME280;50573;51.512;5.386;2023-03-01T11:57:00;102475.88;;;5.03;55.01
64243;BME280;50573;51.512;5.386;2023-03-01T12:07:06;102477.69;;;5.34;55.54
64243;BME280;50573;51.512;5.386;2023-03-01T12:17:41;102460.81;;;5.59;55.85
64243;BME280;50573;51.512;5.386;2023-03-01T12:28:22;102454.22;;;5.57;55.14
64243;BME280;50573;51.512;5.386;2023-03-01T12:38:38;102443.38;;;5.76;53.88
64243;BME280;50573;51.512;5.386;2023-03-01T12:48:50;102421.13;;;5.83;53.00
64243;BME280;50573;51.512;5.386;2023-03-01T12:59:02;102419.19;;;6.06;53.21
64243;BME280;50573;51.512;5.386;2023-03-01T13:09:17;102401.69;;;6.22;53.17
64243;BME280;50573;51.512;5.386;2023-03-01T13:19:25;102372.81;;;6.30;52.71
64243;BME280;50573;51.512;5.386;2023-03-01T13:29:43;102355.84;;;6.33;50.53
64243;BME280;50573;51.512;5.386;2023-03-01T13:39:48;102346.03;;;6.51;51.53
64243;BME280;50573;51.512;5.386;2023-03-01T13:49:55;102326.78;;;6.56;51.22
64243;BME280;50573;51.512;5.386;2023-03-01T14:00:01;102310.63;;;6.63;50.95
64243;BME280;50573;51.512;5.386;2023-03-01T14:10:06;102305.78;;;6.79;50.32
64243;BME280;50573;51.512;5.386;2023-03-01T14:20:16;102300.97;;;6.98;49.56
64243;BME280;50573;51.512;5.386;2023-03-01T14:30:22;102283.09;;;6.90;49.59
64243;BME280;50573;51.512;5.386;2023-03-01T14:40:29;102280.56;;;7.08;48.90
64243;BME280;50573;51.512;5.386;2023-03-01T14:50:34;102258.00;;;6.97;48.85
64243;BME280;50573;51.512;5.386;2023-03-01T15:00:48;102244.38;;;6.90;48.18
64243;BME280;50573;51.512;5.386;2023-03-01T15:11:02;102244.38;;;6.90;49.07
64243;BME280;50573;51.512;5.386;2023-03-01T15:21:17;102234.34;;;6.90;49.81
64243;BME280;50573;51.512;5.386;2023-03-01T15:31:22;102236.34;;;6.97;49.88
64243;BME280;50573;51.512;5.386;2023-03-01T15:41:32;102235.06;;;6.87;50.44
64243;BME280;50573;51.512;5.386;2023-03-01T15:51:37;102238.13;;;6.86;49.94
64243;BME280;50573;51.512;5.386;2023-03-01T16:01:42;102225.91;;;6.62;50.57
64243;BME280;50573;51.512;5.386;2023-03-01T16:11:45;102208.34;;;6.49;50.34
64243;BME280;50573;51.512;5.386;2023-03-01T16:21:50;102196.97;;;6.33;51.16
64243;BME280;50573;51.512;5.386;2023-03-01T16:31:53;102197.13;;;6.14;51.60
64243;BME280;50573;51.512;5.386;2023-03-01T16:41:59;102196.09;;;5.96;53.52
64243;BME280;50573;51.512;5.386;2023-03-01T16:52:02;102193.38;;;5.70;53.39
64243;BME280;50573;51.512;5.386;2023-03-01T17:02:10;102197.28;;;5.46;54.32
64243;BME280;50573;51.512;5.386;2023-03-01T17:12:14;102187.22;;;5.21;55.59
64243;BME280;50573;51.512;5.386;2023-03-01T17:22:19;102192.16;;;4.93;55.75
64243;BME280;50573;51.512;5.386;2023-03-01T17:32:22;102208.19;;;4.63;56.71
64243;BME280;50573;51.512;5.386;2023-03-01T17:42:27;102214.94;;;4.35;57.69
64243;BME280;50573;51.512;5.386;2023-03-01T17:52:30;102218.00;;;4.14;58.22
64243;BME280;50573;51.512;5.386;2023-03-01T18:02:34;102212.16;;;3.93;59.38
64243;BME280;50573;51.512;5.386;2023-03-01T18:12:38;102218.22;;;3.71;60.77
64243;BME280;50573;51.512;5.386;2023-03-01T18:22:42;102228.31;;;3.43;61.66
64243;BME280;50573;51.512;5.386;2023-03-01T18:32:45;102215.47;;;3.21;62.81
64243;BME280;50573;51.512;5.386;2023-03-01T18:42:50;102206.94;;;3.19;62.76
64243;BME280;50573;51.512;5.386;2023-03-01T18:52:53;102195.91;;;3.08;63.46
64243;BME280;50573;51.512;5.386;2023-03-01T19:02:57;102197.03;;;2.92;63.82
64243;BME280;50573;51.512;5.386;2023-03-01T19:13:02;102196.66;;;2.77;64.85
64243;BME280;50573;51.512;5.386;2023-03-01T19:23:06;102206.03;;;2.68;65.46
64243;BME280;50573;51.512;5.386;2023-03-01T19:33:09;102210.59;;;2.52;66.44
64243;BME280;50573;51.512;5.386;2023-03-01T19:43:14;102217.72;;;2.32;66.78
64243;BME280;50573;51.512;5.386;2023-03-01T19:53:17;102204.00;;;2.10;68.60
64243;BME280;50573;51.512;5.386;2023-03-01T20:03:22;102193.16;;;2.06;68.39
64243;BME280;50573;51.512;5.386;2023-03-01T20:13:25;102194.53;;;2.00;68.82
64243;BME280;50573;51.512;5.386;2023-03-01T20:23:29;102211.56;;;1.92;69.47
64243;BME280;50573;51.512;5.386;2023-03-01T20:33:32;102197.22;;;1.88;70.17
64243;BME280;50573;51.512;5.386;2023-03-01T20:43:38;102185.28;;;1.74;70.63
64243;BME280;50573;51.512;5.386;2023-03-01T20:53:42;102192.34;;;1.78;71.08
64243;BME280;50573;51.512;5.386;2023-03-01T21:03:46;102181.13;;;1.76;70.48
64243;BME280;50573;51.512;5.386;2023-03-01T21:13:50;102176.63;;;1.80;70.83
64243;BME280;50573;51.512;5.386;2023-03-01T21:23:54;102171.59;;;1.79;71.33
64243;BME280;50573;51.512;5.386;2023-03-01T21:33:59;102169.72;;;1.67;71.69
64243;BME280;50573;51.512;5.386;2023-03-01T21:44:04;102157.47;;;1.42;72.77
64243;BME280;50573;51.512;5.386;2023-03-01T21:54:10;102147.94;;;1.20;73.22
64243;BME280;50573;51.512;5.386;2023-03-01T22:04:15;102162.16;;;1.21;74.03
64243;BME280;50573;51.512;5.386;2023-03-01T22:14:19;102160.38;;;1.13;74.02
64243;BME280;50573;51.512;5.386;2023-03-01T22:24:24;102169.31;;;1.17;74.42
64243;BME280;50573;51.512;5.386;2023-03-01T22:34:27;102177.91;;;1.10;74.76
64243;BME280;50573;51.512;5.386;2023-03-01T22:44:32;102182.28;;;1.03;75.25
64243;BME280;50573;51.512;5.386;2023-03-01T22:54:35;102193.22;;;0.98;75.07
64243;BME280;50573;51.512;5.386;2023-03-01T23:04:40;102168.28;;;0.97;75.22
64243;BME280;50573;51.512;5.386;2023-03-01T23:14:44;102171.75;;;0.86;75.87
64243;BME280;50573;51.512;5.386;2023-03-01T23:24:48;102166.91;;;0.67;76.68
64243;BME280;50573;51.512;5.386;2023-03-01T23:34:51;102160.84;;;0.58;77.85
64243;BME280;50573;51.512;5.386;2023-03-01T23:44:56;102156.44;;;0.42;78.12
64243;BME280;50573;51.512;5.386;2023-03-01T23:54:59;102157.63;;;0.32;77.67
